CAX8535 ZSAM-ZSQD
Flight info
| Callsign | CAX8535 |
|---|---|
| Flight time | 2h 1m |
| Altitude | 37100 |
| Route | K0857S1130 DOVPU9Z DOVPU W643 FOC W644 ANLUD B221 DST W117 BEGMO W13 TOGUG/K0865S1160 W13 HSN/K0861S1130 W13 PINOT/K0863S1160 B221 IDVEL IDV81A |
| Aircraft | B738/M-SDE2E3FGHIRWXY/LB1 |
Departure
| Time | 2026-05-04 15:57 |
|---|---|
| Airport | Xiamen Gaoqi International Airport (ZSAM) |
Arrival
| Time | 2026-05-04 17:59 |
|---|---|
| Airport | Qingdao Jiaodong International Airport (ZSQD) |
| Time | Latitude | Longitude | Altitude | Speed | Heading |
|---|---|---|---|---|---|
| 2026-05-04 15:26 | 24.53893 | 118.12731 | 56 ft | 0 kts | 142° |
| 2026-05-04 15:47 | 24.53911 | 118.12717 | 48 ft | 4 kts | 148° |
| 2026-05-04 15:47 | 24.53935 | 118.12702 | 50 ft | 4 kts | 156° |
| 2026-05-04 15:48 | 24.53960 | 118.12692 | 49 ft | 4 kts | 167° |
| 2026-05-04 15:48 | 24.53970 | 118.12690 | 53 ft | 0 kts | 168° |
| 2026-05-04 15:50 | 24.53969 | 118.12690 | 53 ft | 1 kts | 170° |
| 2026-05-04 15:50 | 24.53962 | 118.12685 | 54 ft | 2 kts | 232° |
| 2026-05-04 15:51 | 24.53948 | 118.12661 | 52 ft | 6 kts | 234° |
| 2026-05-04 15:51 | 24.53917 | 118.12614 | 53 ft | 9 kts | 239° |
| 2026-05-04 15:51 | 24.53947 | 118.12548 | 51 ft | 11 kts | 321° |
| 2026-05-04 15:51 | 24.53997 | 118.12485 | 55 ft | 12 kts | 266° |
| 2026-05-04 15:52 | 24.53953 | 118.12413 | 52 ft | 11 kts | 232° |
| 2026-05-04 15:52 | 24.53907 | 118.12347 | 56 ft | 11 kts | 232° |
| 2026-05-04 15:52 | 24.53860 | 118.12283 | 57 ft | 11 kts | 232° |
| 2026-05-04 15:52 | 24.53816 | 118.12220 | 52 ft | 10 kts | 231° |
| 2026-05-04 15:53 | 24.53768 | 118.12155 | 53 ft | 11 kts | 231° |
| 2026-05-04 15:53 | 24.53720 | 118.12086 | 54 ft | 11 kts | 232° |
| 2026-05-04 15:53 | 24.53672 | 118.12020 | 58 ft | 11 kts | 232° |
| 2026-05-04 15:53 | 24.53627 | 118.11956 | 58 ft | 11 kts | 232° |
| 2026-05-04 15:54 | 24.53581 | 118.11893 | 55 ft | 10 kts | 231° |
| 2026-05-04 15:54 | 24.53538 | 118.11832 | 54 ft | 10 kts | 233° |
| 2026-05-04 15:54 | 24.53495 | 118.11772 | 56 ft | 10 kts | 232° |
| 2026-05-04 15:54 | 24.53458 | 118.11713 | 59 ft | 9 kts | 253° |
| 2026-05-04 15:55 | 24.53484 | 118.11658 | 56 ft | 4 kts | 320° |
| 2026-05-04 15:55 | 24.53491 | 118.11651 | 60 ft | 0 kts | 320° |
| 2026-05-04 15:55 | 24.53494 | 118.11649 | 57 ft | 1 kts | 321° |
| 2026-05-04 15:55 | 24.53510 | 118.11635 | 61 ft | 5 kts | 321° |
| 2026-05-04 15:56 | 24.53551 | 118.11604 | 56 ft | 9 kts | 345° |
| 2026-05-04 15:56 | 24.53608 | 118.11643 | 61 ft | 12 kts | 50° |
| 2026-05-04 15:56 | 24.53738 | 118.11824 | 57 ft | 60 kts | 52° |
| 2026-05-04 15:56 | 24.54123 | 118.12364 | 52 ft | 118 kts | 52° |
| 2026-05-04 15:57 | 24.54736 | 118.13197 | 128 ft | 155 kts | 50° |
| 2026-05-04 15:57 | 24.55409 | 118.14153 | 611 ft | 162 kts | 54° |
| 2026-05-04 15:57 | 24.56042 | 118.15065 | 1133 ft | 165 kts | 50° |
| 2026-05-04 15:57 | 24.56776 | 118.16082 | 1817 ft | 163 kts | 51° |
| 2026-05-04 15:58 | 24.57470 | 118.17047 | 2468 ft | 163 kts | 52° |
| 2026-05-04 15:58 | 24.58197 | 118.18064 | 2875 ft | 182 kts | 53° |
| 2026-05-04 15:58 | 24.59028 | 118.19229 | 3082 ft | 206 kts | 53° |
| 2026-05-04 15:58 | 24.59969 | 118.20553 | 3276 ft | 231 kts | 52° |
| 2026-05-04 15:59 | 24.60992 | 118.21991 | 3624 ft | 247 kts | 52° |
| 2026-05-04 15:59 | 24.62144 | 118.23433 | 4116 ft | 258 kts | 45° |
| 2026-05-04 15:59 | 24.63470 | 118.24790 | 4722 ft | 264 kts | 43° |
| 2026-05-04 15:59 | 24.64853 | 118.26166 | 5280 ft | 271 kts | 42° |
| 2026-05-04 16:00 | 24.66228 | 118.27538 | 5844 ft | 277 kts | 42° |
| 2026-05-04 16:00 | 24.67650 | 118.28970 | 6443 ft | 283 kts | 41° |
| 2026-05-04 16:00 | 24.69119 | 118.30460 | 7033 ft | 289 kts | 41° |
| 2026-05-04 16:00 | 24.70607 | 118.31978 | 7655 ft | 293 kts | 40° |
| 2026-05-04 16:01 | 24.72100 | 118.33506 | 8304 ft | 298 kts | 40° |
| 2026-05-04 16:01 | 24.73641 | 118.35092 | 8805 ft | 304 kts | 41° |
| 2026-05-04 16:01 | 24.75139 | 118.36771 | 9496 ft | 310 kts | 43° |
| 2026-05-04 16:01 | 24.76627 | 118.38535 | 10107 ft | 317 kts | 44° |
| 2026-05-04 16:02 | 24.78140 | 118.40348 | 10424 ft | 335 kts | 44° |
| 2026-05-04 16:02 | 24.79769 | 118.42296 | 10591 ft | 356 kts | 44° |
| 2026-05-04 16:02 | 24.83297 | 118.46497 | 11147 ft | 385 kts | 44° |
| 2026-05-04 16:03 | 24.85120 | 118.48660 | 11689 ft | 391 kts | 44° |
| 2026-05-04 16:03 | 24.86990 | 118.50877 | 12285 ft | 395 kts | 44° |
| 2026-05-04 16:03 | 24.88867 | 118.53088 | 12891 ft | 398 kts | 44° |
| 2026-05-04 16:03 | 24.90793 | 118.55340 | 13468 ft | 403 kts | 44° |
| 2026-05-04 16:04 | 24.92712 | 118.57580 | 14029 ft | 408 kts | 44° |
| 2026-05-04 16:04 | 24.96640 | 118.62180 | 15134 ft | 416 kts | 44° |
| 2026-05-04 16:04 | 24.98644 | 118.64528 | 15694 ft | 420 kts | 44° |
| 2026-05-04 16:05 | 25.00636 | 118.66862 | 16237 ft | 424 kts | 44° |
| 2026-05-04 16:05 | 25.02673 | 118.69248 | 16752 ft | 429 kts | 44° |
| 2026-05-04 16:05 | 25.06782 | 118.74074 | 17831 ft | 437 kts | 44° |
| 2026-05-04 16:06 | 25.08874 | 118.76534 | 18322 ft | 442 kts | 44° |
| 2026-05-04 16:06 | 25.14528 | 118.83187 | 19514 ft | 450 kts | 44° |
| 2026-05-04 16:07 | 25.17414 | 118.86591 | 20103 ft | 455 kts | 44° |
| 2026-05-04 16:07 | 25.23956 | 118.94309 | 21338 ft | 465 kts | 44° |
| 2026-05-04 16:08 | 25.26154 | 118.96904 | 21725 ft | 468 kts | 44° |
| 2026-05-04 16:08 | 25.32936 | 119.04802 | 22870 ft | 477 kts | 43° |
| 2026-05-04 16:09 | 25.37540 | 119.10142 | 23582 ft | 483 kts | 43° |
| 2026-05-04 16:09 | 25.42209 | 119.15578 | 24155 ft | 489 kts | 43° |
| 2026-05-04 16:10 | 25.46930 | 119.21086 | 24706 ft | 495 kts | 43° |
| 2026-05-04 16:11 | 25.54067 | 119.29424 | 25466 ft | 504 kts | 43° |
| 2026-05-04 16:11 | 25.56479 | 119.32259 | 25734 ft | 507 kts | 43° |
| 2026-05-04 16:12 | 25.63764 | 119.40876 | 26514 ft | 515 kts | 43° |
| 2026-05-04 16:12 | 25.71144 | 119.49620 | 27113 ft | 522 kts | 43° |
| 2026-05-04 16:13 | 25.76136 | 119.55459 | 27600 ft | 522 kts | 38° |
| 2026-05-04 16:13 | 25.81949 | 119.60039 | 27771 ft | 515 kts | 20° |
| 2026-05-04 16:14 | 25.88365 | 119.63518 | 28257 ft | 515 kts | 20° |
| 2026-05-04 16:14 | 25.94794 | 119.67161 | 28609 ft | 520 kts | 20° |
| 2026-05-04 16:15 | 26.04487 | 119.72465 | 29348 ft | 515 kts | 14° |
| 2026-05-04 16:16 | 26.11286 | 119.74303 | 29621 ft | 498 kts | 357° |
| 2026-05-04 16:16 | 26.21438 | 119.73958 | 30269 ft | 484 kts | 346° |
| 2026-05-04 16:17 | 26.28153 | 119.73468 | 30629 ft | 485 kts | 346° |
| 2026-05-04 16:18 | 26.38244 | 119.72840 | 31292 ft | 484 kts | 346° |
| 2026-05-04 16:18 | 26.41622 | 119.72634 | 31489 ft | 485 kts | 347° |
| 2026-05-04 16:19 | 26.51798 | 119.75454 | 32173 ft | 532 kts | 23° |
| 2026-05-04 16:19 | 26.58074 | 119.79906 | 32555 ft | 537 kts | 26° |
| 2026-05-04 16:20 | 26.67436 | 119.86718 | 33212 ft | 535 kts | 25° |
| 2026-05-04 16:20 | 26.73741 | 119.91157 | 33665 ft | 535 kts | 24° |
| 2026-05-04 16:21 | 26.83188 | 119.97799 | 34254 ft | 536 kts | 24° |
| 2026-05-04 16:22 | 26.89453 | 120.02233 | 34725 ft | 533 kts | 24° |
| 2026-05-04 16:22 | 26.98824 | 120.08900 | 35334 ft | 534 kts | 24° |
| 2026-05-04 16:23 | 27.08194 | 120.15584 | 36124 ft | 528 kts | 24° |
| 2026-05-04 16:24 | 27.20480 | 120.24271 | 36901 ft | 524 kts | 22° |
| 2026-05-04 16:25 | 27.26671 | 120.28601 | 37232 ft | 524 kts | 22° |
| 2026-05-04 16:26 | 27.48238 | 120.43865 | 37261 ft | 521 kts | 23° |
| 2026-05-04 16:28 | 27.63474 | 120.54745 | 37258 ft | 518 kts | 23° |
| 2026-05-04 16:28 | 27.72463 | 120.61650 | 37238 ft | 536 kts | 39° |
| 2026-05-04 16:29 | 27.77936 | 120.75903 | 37261 ft | 556 kts | 77° |
| 2026-05-04 16:31 | 27.82230 | 120.97314 | 37242 ft | 560 kts | 76° |
| 2026-05-04 16:32 | 27.87604 | 121.22953 | 37249 ft | 559 kts | 76° |
| 2026-05-04 16:33 | 27.91141 | 121.40024 | 37258 ft | 558 kts | 76° |
| 2026-05-04 16:34 | 27.93772 | 121.52797 | 37239 ft | 557 kts | 76° |
| 2026-05-04 16:35 | 27.99212 | 121.78319 | 37211 ft | 553 kts | 62° |
| 2026-05-04 16:36 | 28.01131 | 121.81961 | 37271 ft | 539 kts | 45° |
| 2026-05-04 16:36 | 28.06647 | 121.87391 | 37254 ft | 515 kts | 17° |
| 2026-05-04 16:37 | 28.16319 | 121.92828 | 37250 ft | 519 kts | 15° |
| 2026-05-04 16:38 | 28.29293 | 122.00203 | 37253 ft | 525 kts | 17° |
| 2026-05-04 16:39 | 28.45501 | 122.09635 | 37241 ft | 522 kts | 17° |
| 2026-05-04 16:40 | 28.58416 | 122.17154 | 37244 ft | 519 kts | 17° |
| 2026-05-04 16:41 | 28.74436 | 122.26508 | 37249 ft | 517 kts | 17° |
| 2026-05-04 16:43 | 28.90385 | 122.35854 | 37273 ft | 516 kts | 17° |
| 2026-05-04 16:43 | 29.00016 | 122.41513 | 37251 ft | 518 kts | 17° |
| 2026-05-04 16:45 | 29.19410 | 122.51953 | 37254 ft | 489 kts | 356° |
| 2026-05-04 16:46 | 29.28966 | 122.51353 | 37264 ft | 446 kts | 334° |
| 2026-05-04 16:46 | 29.35028 | 122.49864 | 37265 ft | 449 kts | 334° |
| 2026-05-04 16:47 | 29.47376 | 122.46968 | 37233 ft | 454 kts | 335° |
| 2026-05-04 16:48 | 29.59755 | 122.44102 | 37232 ft | 455 kts | 335° |
| 2026-05-04 16:49 | 29.72136 | 122.41221 | 37229 ft | 454 kts | 335° |
| 2026-05-04 16:50 | 29.84487 | 122.38339 | 37226 ft | 452 kts | 335° |
| 2026-05-04 16:51 | 29.93805 | 122.36362 | 37207 ft | 465 kts | 343° |
| 2026-05-04 16:51 | 30.00426 | 122.36603 | 37222 ft | 480 kts | 351° |
| 2026-05-04 16:52 | 30.07107 | 122.37141 | 37216 ft | 480 kts | 351° |
| 2026-05-04 16:53 | 30.17059 | 122.37805 | 37221 ft | 479 kts | 350° |
| 2026-05-04 16:54 | 30.30329 | 122.38602 | 37213 ft | 477 kts | 350° |
| 2026-05-04 16:55 | 30.50214 | 122.39641 | 37206 ft | 476 kts | 350° |
| 2026-05-04 16:56 | 30.66758 | 122.40538 | 37219 ft | 477 kts | 351° |
| 2026-05-04 16:57 | 30.76704 | 122.41096 | 37209 ft | 477 kts | 351° |
| 2026-05-04 16:58 | 30.89966 | 122.41837 | 37213 ft | 477 kts | 351° |
| 2026-05-04 17:00 | 31.09844 | 122.42960 | 37209 ft | 478 kts | 352° |
| 2026-05-04 17:01 | 31.26392 | 122.43910 | 37205 ft | 477 kts | 352° |
| 2026-05-04 17:02 | 31.39677 | 122.44686 | 37205 ft | 477 kts | 352° |
| 2026-05-04 17:02 | 31.46108 | 122.44270 | 37205 ft | 454 kts | 337° |
| 2026-05-04 17:03 | 31.49104 | 122.43296 | 37195 ft | 440 kts | 328° |
| 2026-05-04 17:03 | 31.57615 | 122.39311 | 37206 ft | 439 kts | 328° |
| 2026-05-04 17:04 | 31.68993 | 122.34110 | 37213 ft | 440 kts | 328° |
| 2026-05-04 17:05 | 31.80310 | 122.28705 | 37227 ft | 438 kts | 327° |
| 2026-05-04 17:06 | 31.88819 | 122.24575 | 37205 ft | 442 kts | 329° |
| 2026-05-04 17:07 | 31.96490 | 122.21202 | 37198 ft | 443 kts | 329° |
| 2026-05-04 17:07 | 32.03227 | 122.18193 | 37195 ft | 442 kts | 329° |
| 2026-05-04 17:08 | 32.11833 | 122.14297 | 37195 ft | 442 kts | 329° |
| 2026-05-04 17:09 | 32.17543 | 122.11703 | 37195 ft | 442 kts | 329° |
| 2026-05-04 17:09 | 32.23295 | 122.09087 | 37195 ft | 442 kts | 329° |
| 2026-05-04 17:10 | 32.37636 | 122.02549 | 37201 ft | 443 kts | 330° |
| 2026-05-04 17:11 | 32.43388 | 121.99922 | 37194 ft | 443 kts | 330° |
| 2026-05-04 17:12 | 32.51983 | 121.95989 | 37190 ft | 442 kts | 330° |
| 2026-05-04 17:13 | 32.66319 | 121.89411 | 37199 ft | 443 kts | 330° |
| 2026-05-04 17:14 | 32.77820 | 121.84116 | 37192 ft | 443 kts | 330° |
| 2026-05-04 17:15 | 32.86456 | 121.80130 | 37224 ft | 443 kts | 330° |
| 2026-05-04 17:16 | 32.97989 | 121.74796 | 37190 ft | 445 kts | 331° |
| 2026-05-04 17:17 | 33.09487 | 121.69462 | 37187 ft | 445 kts | 331° |
| 2026-05-04 17:18 | 33.21038 | 121.64088 | 37190 ft | 445 kts | 332° |
| 2026-05-04 17:19 | 33.32484 | 121.58474 | 37188 ft | 443 kts | 329° |
| 2026-05-04 17:20 | 33.43809 | 121.52563 | 37190 ft | 444 kts | 330° |
| 2026-05-04 17:20 | 33.52270 | 121.48190 | 37184 ft | 444 kts | 330° |
| 2026-05-04 17:21 | 33.63622 | 121.42304 | 37184 ft | 444 kts | 330° |
| 2026-05-04 17:22 | 33.69322 | 121.39383 | 37185 ft | 445 kts | 332° |
| 2026-05-04 17:23 | 33.79882 | 121.34436 | 37174 ft | 446 kts | 333° |
| 2026-05-04 17:24 | 33.88553 | 121.30362 | 37180 ft | 445 kts | 333° |
| 2026-05-04 17:25 | 34.00061 | 121.24897 | 37177 ft | 445 kts | 333° |
| 2026-05-04 17:26 | 34.11576 | 121.19411 | 37179 ft | 444 kts | 333° |
| 2026-05-04 17:27 | 34.25923 | 121.12552 | 37175 ft | 443 kts | 333° |
| 2026-05-04 17:28 | 34.37354 | 121.07071 | 37170 ft | 442 kts | 333° |
| 2026-05-04 17:29 | 34.54541 | 120.98798 | 37168 ft | 442 kts | 333° |
| 2026-05-04 17:31 | 34.68771 | 120.91921 | 37171 ft | 441 kts | 334° |
| 2026-05-04 17:32 | 34.83018 | 120.85010 | 37167 ft | 441 kts | 334° |
| 2026-05-04 17:33 | 34.94360 | 120.79489 | 37184 ft | 441 kts | 334° |
| 2026-05-04 17:34 | 35.05767 | 120.73919 | 36951 ft | 445 kts | 334° |
| 2026-05-04 17:35 | 35.14380 | 120.69704 | 35124 ft | 443 kts | 334° |
| 2026-05-04 17:35 | 35.20086 | 120.66929 | 33642 ft | 445 kts | 335° |
| 2026-05-04 17:35 | 35.22966 | 120.65538 | 32834 ft | 445 kts | 335° |
| 2026-05-04 17:36 | 35.25852 | 120.64144 | 32062 ft | 445 kts | 335° |
| 2026-05-04 17:36 | 35.28739 | 120.62747 | 31277 ft | 445 kts | 335° |
| 2026-05-04 17:36 | 35.31616 | 120.61352 | 30472 ft | 446 kts | 335° |
| 2026-05-04 17:36 | 35.34482 | 120.59960 | 29565 ft | 447 kts | 335° |
| 2026-05-04 17:37 | 35.37376 | 120.58554 | 28823 ft | 444 kts | 335° |
| 2026-05-04 17:37 | 35.40252 | 120.57159 | 28104 ft | 440 kts | 335° |
| 2026-05-04 17:37 | 35.43058 | 120.55801 | 27469 ft | 435 kts | 336° |
| 2026-05-04 17:37 | 35.45888 | 120.54432 | 26863 ft | 430 kts | 336° |
| 2026-05-04 17:38 | 35.48624 | 120.53106 | 26231 ft | 426 kts | 336° |
| 2026-05-04 17:38 | 35.51288 | 120.51813 | 25623 ft | 423 kts | 336° |
| 2026-05-04 17:38 | 35.54022 | 120.50484 | 25028 ft | 420 kts | 336° |
| 2026-05-04 17:38 | 35.56701 | 120.49181 | 24450 ft | 416 kts | 337° |
| 2026-05-04 17:39 | 35.62059 | 120.46573 | 23190 ft | 412 kts | 337° |
| 2026-05-04 17:39 | 35.64710 | 120.45281 | 22551 ft | 408 kts | 337° |
| 2026-05-04 17:39 | 35.67313 | 120.44011 | 21972 ft | 403 kts | 337° |
| 2026-05-04 17:40 | 35.69926 | 120.42736 | 21375 ft | 400 kts | 337° |
| 2026-05-04 17:40 | 35.72505 | 120.41475 | 20796 ft | 396 kts | 338° |
| 2026-05-04 17:40 | 35.75035 | 120.40239 | 20236 ft | 393 kts | 338° |
| 2026-05-04 17:40 | 35.77571 | 120.38998 | 19658 ft | 390 kts | 338° |
| 2026-05-04 17:41 | 35.80068 | 120.37776 | 19104 ft | 387 kts | 338° |
| 2026-05-04 17:41 | 35.82568 | 120.36552 | 18555 ft | 385 kts | 338° |
| 2026-05-04 17:41 | 35.85051 | 120.35335 | 17945 ft | 383 kts | 338° |
| 2026-05-04 17:41 | 35.87520 | 120.34125 | 17339 ft | 381 kts | 338° |
| 2026-05-04 17:42 | 35.89984 | 120.32916 | 16756 ft | 378 kts | 338° |
| 2026-05-04 17:42 | 35.92397 | 120.31731 | 16203 ft | 374 kts | 338° |
| 2026-05-04 17:42 | 35.94810 | 120.30545 | 15660 ft | 371 kts | 338° |
| 2026-05-04 17:42 | 35.97219 | 120.29374 | 15110 ft | 368 kts | 340° |
| 2026-05-04 17:43 | 35.99715 | 120.28690 | 14499 ft | 368 kts | 353° |
| 2026-05-04 17:43 | 36.02227 | 120.28419 | 13932 ft | 366 kts | 355° |
| 2026-05-04 17:43 | 36.04769 | 120.28179 | 13330 ft | 364 kts | 355° |
| 2026-05-04 17:43 | 36.07296 | 120.27929 | 12746 ft | 362 kts | 354° |
| 2026-05-04 17:44 | 36.09763 | 120.27668 | 12207 ft | 359 kts | 354° |
| 2026-05-04 17:44 | 36.12271 | 120.27388 | 11667 ft | 356 kts | 353° |
| 2026-05-04 17:44 | 36.14684 | 120.27109 | 11151 ft | 354 kts | 353° |
| 2026-05-04 17:44 | 36.17123 | 120.26823 | 10898 ft | 344 kts | 353° |
| 2026-05-04 17:45 | 36.19462 | 120.26546 | 10749 ft | 332 kts | 353° |
| 2026-05-04 17:45 | 36.21704 | 120.26281 | 10599 ft | 322 kts | 352° |
| 2026-05-04 17:45 | 36.23905 | 120.26019 | 10460 ft | 312 kts | 352° |
| 2026-05-04 17:45 | 36.26041 | 120.25766 | 10330 ft | 302 kts | 352° |
| 2026-05-04 17:46 | 36.28087 | 120.25524 | 10203 ft | 294 kts | 352° |
| 2026-05-04 17:46 | 36.30072 | 120.25117 | 10086 ft | 284 kts | 342° |
| 2026-05-04 17:46 | 36.31940 | 120.24416 | 9886 ft | 279 kts | 339° |
| 2026-05-04 17:46 | 36.33780 | 120.23653 | 9584 ft | 278 kts | 339° |
| 2026-05-04 17:47 | 36.35601 | 120.22895 | 9290 ft | 277 kts | 339° |
| 2026-05-04 17:47 | 36.37439 | 120.22142 | 8985 ft | 277 kts | 339° |
| 2026-05-04 17:47 | 36.39273 | 120.21401 | 8689 ft | 276 kts | 339° |
| 2026-05-04 17:47 | 36.41108 | 120.20669 | 8394 ft | 276 kts | 340° |
| 2026-05-04 17:48 | 36.42916 | 120.19952 | 8100 ft | 276 kts | 340° |
| 2026-05-04 17:48 | 36.44757 | 120.19226 | 7744 ft | 278 kts | 340° |
| 2026-05-04 17:48 | 36.46610 | 120.18496 | 7438 ft | 278 kts | 340° |
| 2026-05-04 17:48 | 36.48430 | 120.17781 | 7136 ft | 278 kts | 340° |
| 2026-05-04 17:49 | 36.50288 | 120.17051 | 6856 ft | 278 kts | 340° |
| 2026-05-04 17:49 | 36.52139 | 120.16324 | 6567 ft | 277 kts | 340° |
| 2026-05-04 17:49 | 36.53981 | 120.15601 | 6298 ft | 276 kts | 340° |
| 2026-05-04 17:49 | 36.55774 | 120.14898 | 6186 ft | 269 kts | 339° |
| 2026-05-04 17:50 | 36.57549 | 120.14202 | 6054 ft | 262 kts | 339° |
| 2026-05-04 17:50 | 36.59236 | 120.13540 | 6000 ft | 249 kts | 339° |
| 2026-05-04 17:50 | 36.60738 | 120.12634 | 5876 ft | 231 kts | 313° |
| 2026-05-04 17:50 | 36.61562 | 120.11074 | 5786 ft | 210 kts | 285° |
| 2026-05-04 17:51 | 36.61812 | 120.09345 | 5680 ft | 196 kts | 268° |
| 2026-05-04 17:51 | 36.61586 | 120.07689 | 5380 ft | 193 kts | 250° |
| 2026-05-04 17:51 | 36.61177 | 120.06123 | 5188 ft | 187 kts | 251° |
| 2026-05-04 17:51 | 36.60786 | 120.04595 | 4952 ft | 183 kts | 251° |
| 2026-05-04 17:52 | 36.60407 | 120.03117 | 4743 ft | 180 kts | 250° |
| 2026-05-04 17:52 | 36.60028 | 120.01643 | 4534 ft | 176 kts | 250° |
| 2026-05-04 17:52 | 36.59657 | 120.00216 | 4337 ft | 170 kts | 247° |
| 2026-05-04 17:52 | 36.58925 | 119.99152 | 4136 ft | 162 kts | 206° |
| 2026-05-04 17:53 | 36.57808 | 119.99081 | 3982 ft | 169 kts | 168° |
| 2026-05-04 17:53 | 36.56710 | 119.99494 | 3981 ft | 162 kts | 170° |
| 2026-05-04 17:53 | 36.55597 | 119.99901 | 3801 ft | 167 kts | 169° |
| 2026-05-04 17:53 | 36.54495 | 120.00322 | 3587 ft | 165 kts | 169° |
| 2026-05-04 17:54 | 36.53410 | 120.00745 | 3384 ft | 163 kts | 169° |
| 2026-05-04 17:54 | 36.52343 | 120.01164 | 3180 ft | 162 kts | 169° |
| 2026-05-04 17:54 | 36.51266 | 120.01587 | 2957 ft | 160 kts | 169° |
| 2026-05-04 17:54 | 36.50207 | 120.02004 | 2754 ft | 158 kts | 169° |
| 2026-05-04 17:55 | 36.49171 | 120.02412 | 2545 ft | 156 kts | 169° |
| 2026-05-04 17:55 | 36.48163 | 120.02810 | 2332 ft | 147 kts | 169° |
| 2026-05-04 17:55 | 36.47221 | 120.03182 | 2143 ft | 142 kts | 169° |
| 2026-05-04 17:55 | 36.46272 | 120.03553 | 1966 ft | 143 kts | 169° |
| 2026-05-04 17:56 | 36.45318 | 120.03928 | 1793 ft | 142 kts | 168° |
| 2026-05-04 17:56 | 36.44414 | 120.04285 | 1580 ft | 132 kts | 168° |
| 2026-05-04 17:56 | 36.43580 | 120.04613 | 1413 ft | 126 kts | 167° |
| 2026-05-04 17:56 | 36.42730 | 120.04947 | 1255 ft | 130 kts | 166° |
| 2026-05-04 17:57 | 36.41850 | 120.05293 | 1067 ft | 134 kts | 166° |
| 2026-05-04 17:57 | 36.40967 | 120.05640 | 878 ft | 134 kts | 164° |
| 2026-05-04 17:57 | 36.40061 | 120.05997 | 701 ft | 138 kts | 164° |
| 2026-05-04 17:57 | 36.39151 | 120.06356 | 522 ft | 136 kts | 162° |
| 2026-05-04 17:58 | 36.38241 | 120.06714 | 358 ft | 141 kts | 162° |
| 2026-05-04 17:58 | 36.37298 | 120.07086 | 136 ft | 139 kts | 162° |
| 2026-05-04 17:58 | 36.36415 | 120.07434 | 40 ft | 125 kts | 162° |
| 2026-05-04 17:58 | 36.35798 | 120.07680 | 36 ft | 62 kts | 162° |
| 2026-05-04 17:59 | 36.35566 | 120.07772 | 37 ft | 22 kts | 162° |
| 2026-05-04 17:59 | 36.35422 | 120.07829 | 36 ft | 21 kts | 162° |
| 2026-05-04 17:59 | 36.35194 | 120.08006 | 35 ft | 10 kts | 136° |
| 2026-05-04 18:00 | 36.35147 | 120.08064 | 35 ft | 9 kts | 123° |
| 2026-05-04 18:00 | 36.35154 | 120.08141 | 36 ft | 9 kts | 72° |
| 2026-05-04 18:00 | 36.35166 | 120.08216 | 36 ft | 9 kts | 101° |
| 2026-05-04 18:00 | 36.35118 | 120.08257 | 36 ft | 9 kts | 162° |
| 2026-05-04 18:01 | 36.35062 | 120.08279 | 36 ft | 8 kts | 162° |
| 2026-05-04 18:01 | 36.35007 | 120.08301 | 36 ft | 8 kts | 162° |
| 2026-05-04 18:01 | 36.34946 | 120.08325 | 34 ft | 10 kts | 162° |
| 2026-05-04 18:02 | 36.34795 | 120.08384 | 36 ft | 13 kts | 162° |
| 2026-05-04 18:02 | 36.34759 | 120.08469 | 36 ft | 13 kts | 73° |
| 2026-05-04 18:02 | 36.34789 | 120.08585 | 36 ft | 15 kts | 72° |
| 2026-05-04 18:02 | 36.34819 | 120.08706 | 35 ft | 15 kts | 73° |
| 2026-05-04 18:03 | 36.34852 | 120.08833 | 36 ft | 16 kts | 72° |
| 2026-05-04 18:03 | 36.34886 | 120.08967 | 36 ft | 16 kts | 72° |
| 2026-05-04 18:03 | 36.34919 | 120.09096 | 35 ft | 16 kts | 72° |
| 2026-05-04 18:03 | 36.34954 | 120.09228 | 35 ft | 16 kts | 72° |
| 2026-05-04 18:04 | 36.34989 | 120.09368 | 35 ft | 17 kts | 72° |
| 2026-05-04 18:04 | 36.35026 | 120.09512 | 35 ft | 17 kts | 72° |
| 2026-05-04 18:04 | 36.35098 | 120.09790 | 35 ft | 17 kts | 72° |
| 2026-05-04 18:05 | 36.35134 | 120.09933 | 33 ft | 18 kts | 71° |
| 2026-05-04 18:05 | 36.35166 | 120.10057 | 35 ft | 10 kts | 72° |
| 2026-05-04 18:05 | 36.35204 | 120.10123 | 35 ft | 10 kts | 21° |
| 2026-05-04 18:05 | 36.35279 | 120.10102 | 35 ft | 12 kts | 342° |
| 2026-05-04 18:06 | 36.35459 | 120.10031 | 35 ft | 15 kts | 342° |
| 2026-05-04 18:06 | 36.35567 | 120.09989 | 34 ft | 17 kts | 342° |
| 2026-05-04 18:06 | 36.35683 | 120.09943 | 35 ft | 19 kts | 342° |
| 2026-05-04 18:07 | 36.35812 | 120.09893 | 35 ft | 20 kts | 342° |
| 2026-05-04 18:07 | 36.35950 | 120.09838 | 35 ft | 22 kts | 342° |
| 2026-05-04 18:07 | 36.36020 | 120.09802 | 35 ft | 10 kts | 317° |
| 2026-05-04 18:07 | 36.36031 | 120.09720 | 35 ft | 10 kts | 289° |
| 2026-05-04 18:08 | 36.36097 | 120.09673 | 35 ft | 12 kts | 341° |
| 2026-05-04 18:08 | 36.36183 | 120.09641 | 35 ft | 14 kts | 343° |
| 2026-05-04 18:08 | 36.36251 | 120.09573 | 35 ft | 14 kts | 257° |
| 2026-05-04 18:08 | 36.36239 | 120.09459 | 36 ft | 8 kts | 279° |
| 2026-05-04 18:09 | 36.36227 | 120.09334 | 35 ft | 8 kts | 202° |
| 2026-05-04 18:09 | 36.36186 | 120.09322 | 36 ft | 0 kts | 193° |